sensor_id;sensor_type;location;lat;lon;timestamp;temperature;humidity
14397;DHT22;50653;47.810;13.022;2023-06-01T00:02:02;19.00;75.00
14397;DHT22;50653;47.810;13.022;2023-06-01T00:04:28;18.70;75.70
14397;DHT22;50653;47.810;13.022;2023-06-01T00:06:53;18.80;76.10
14397;DHT22;50653;47.810;13.022;2023-06-01T00:09:20;18.90;75.70
14397;DHT22;50653;47.810;13.022;2023-06-01T00:11:46;18.80;76.20
14397;DHT22;50653;47.810;13.022;2023-06-01T00:14:11;18.70;76.20
14397;DHT22;50653;47.810;13.022;2023-06-01T00:16:37;18.70;76.40
14397;DHT22;50653;47.810;13.022;2023-06-01T00:19:03;18.70;76.50
14397;DHT22;50653;47.810;13.022;2023-06-01T00:21:29;18.70;77.00
14397;DHT22;50653;47.810;13.022;2023-06-01T00:23:57;18.90;76.20
14397;DHT22;50653;47.810;13.022;2023-06-01T00:26:22;18.60;76.60
14397;DHT22;50653;47.810;13.022;2023-06-01T00:28:50;18.60;76.70
14397;DHT22;50653;47.810;13.022;2023-06-01T00:31:15;18.70;76.80
14397;DHT22;50653;47.810;13.022;2023-06-01T00:33:41;18.60;77.20
14397;DHT22;50653;47.810;13.022;2023-06-01T00:36:07;18.70;76.70
14397;DHT22;50653;47.810;13.022;2023-06-01T00:38:33;18.70;76.50
14397;DHT22;50653;47.810;13.022;2023-06-01T00:40:59;18.50;76.60
14397;DHT22;50653;47.810;13.022;2023-06-01T00:43:24;18.60;76.50
14397;DHT22;50653;47.810;13.022;2023-06-01T00:45:50;18.30;77.40
14397;DHT22;50653;47.810;13.022;2023-06-01T00:48:16;18.30;77.30
14397;DHT22;50653;47.810;13.022;2023-06-01T00:50:44;18.10;78.10
14397;DHT22;50653;47.810;13.022;2023-06-01T00:53:18;17.80;78.90
14397;DHT22;50653;47.810;13.022;2023-06-01T00:55:45;18.10;78.60
14397;DHT22;50653;47.810;13.022;2023-06-01T00:58:12;18.20;77.90
14397;DHT22;50653;47.810;13.022;2023-06-01T01:00:39;18.20;77.40
14397;DHT22;50653;47.810;13.022;2023-06-01T01:03:06;18.20;77.80
14397;DHT22;50653;47.810;13.022;2023-06-01T01:05:39;18.10;77.40
14397;DHT22;50653;47.810;13.022;2023-06-01T01:08:26;17.50;79.60
14397;DHT22;50653;47.810;13.022;2023-06-01T01:11:11;17.80;79.40
14397;DHT22;50653;47.810;13.022;2023-06-01T01:13:43;18.10;78.00
14397;DHT22;50653;47.810;13.022;2023-06-01T01:21:13;18.00;77.40
14397;DHT22;50653;47.810;13.022;2023-06-01T01:29:31;18.00;78.20
14397;DHT22;50653;47.810;13.022;2023-06-01T01:31:59;18.10;78.50
14397;DHT22;50653;47.810;13.022;2023-06-01T01:34:27;18.10;77.70
14397;DHT22;50653;47.810;13.022;2023-06-01T01:36:54;17.50;78.30
14397;DHT22;50653;47.810;13.022;2023-06-01T01:39:20;17.70;78.60
14397;DHT22;50653;47.810;13.022;2023-06-01T01:41:46;17.30;79.40
14397;DHT22;50653;47.810;13.022;2023-06-01T01:44:12;17.10;81.20
14397;DHT22;50653;47.810;13.022;2023-06-01T01:49:30;17.00;82.10
14397;DHT22;50653;47.810;13.022;2023-06-01T01:54:43;17.10;82.00
14397;DHT22;50653;47.810;13.022;2023-06-01T01:57:09;16.80;82.40
14397;DHT22;50653;47.810;13.022;2023-06-01T01:59:37;16.90;83.60
14397;DHT22;50653;47.810;13.022;2023-06-01T02:02:03;17.20;82.80
14397;DHT22;50653;47.810;13.022;2023-06-01T02:04:29;17.30;81.30
14397;DHT22;50653;47.810;13.022;2023-06-01T02:06:56;17.20;81.30
14397;DHT22;50653;47.810;13.022;2023-06-01T02:09:22;17.40;81.90
14397;DHT22;50653;47.810;13.022;2023-06-01T02:11:48;17.10;81.70
14397;DHT22;50653;47.810;13.022;2023-06-01T02:14:14;17.20;81.90
14397;DHT22;50653;47.810;13.022;2023-06-01T02:16:39;17.00;82.30
14397;DHT22;50653;47.810;13.022;2023-06-01T02:19:05;16.70;82.70
14397;DHT22;50653;47.810;13.022;2023-06-01T02:21:31;16.90;82.60
14397;DHT22;50653;47.810;13.022;2023-06-01T02:24:01;17.00;82.00
14397;DHT22;50653;47.810;13.022;2023-06-01T02:26:31;17.40;81.30
14397;DHT22;50653;47.810;13.022;2023-06-01T02:28:57;17.40;80.70
14397;DHT22;50653;47.810;13.022;2023-06-01T02:31:22;17.50;80.60
14397;DHT22;50653;47.810;13.022;2023-06-01T02:33:49;17.50;80.50
14397;DHT22;50653;47.810;13.022;2023-06-01T02:36:16;17.40;80.60
14397;DHT22;50653;47.810;13.022;2023-06-01T02:38:42;17.20;81.20
14397;DHT22;50653;47.810;13.022;2023-06-01T02:41:08;17.00;81.30
14397;DHT22;50653;47.810;13.022;2023-06-01T02:43:37;16.60;82.30
14397;DHT22;50653;47.810;13.022;2023-06-01T02:46:03;16.30;83.50
14397;DHT22;50653;47.810;13.022;2023-06-01T02:48:34;16.80;83.70
14397;DHT22;50653;47.810;13.022;2023-06-01T02:51:00;17.10;82.50
14397;DHT22;50653;47.810;13.022;2023-06-01T02:53:26;17.20;82.30
14397;DHT22;50653;47.810;13.022;2023-06-01T02:55:55;17.20;82.00
14397;DHT22;50653;47.810;13.022;2023-06-01T02:58:33;17.00;82.60
14397;DHT22;50653;47.810;13.022;2023-06-01T03:01:06;17.20;81.80
14397;DHT22;50653;47.810;13.022;2023-06-01T03:03:33;17.20;82.30
14397;DHT22;50653;47.810;13.022;2023-06-01T03:05:59;17.10;81.00
14397;DHT22;50653;47.810;13.022;2023-06-01T03:08:43;17.10;81.70
14397;DHT22;50653;47.810;13.022;2023-06-01T03:11:26;16.70;82.00
14397;DHT22;50653;47.810;13.022;2023-06-01T03:13:52;16.40;83.60
14397;DHT22;50653;47.810;13.022;2023-06-01T03:16:18;16.50;83.50
14397;DHT22;50653;47.810;13.022;2023-06-01T03:18:59;16.30;85.20
14397;DHT22;50653;47.810;13.022;2023-06-01T03:21:25;16.60;84.90
14397;DHT22;50653;47.810;13.022;2023-06-01T03:23:53;16.30;84.30
14397;DHT22;50653;47.810;13.022;2023-06-01T03:26:19;16.40;85.50
14397;DHT22;50653;47.810;13.022;2023-06-01T03:28:47;16.70;84.80
14397;DHT22;50653;47.810;13.022;2023-06-01T03:31:13;17.00;83.70
14397;DHT22;50653;47.810;13.022;2023-06-01T03:33:39;17.00;83.30
14397;DHT22;50653;47.810;13.022;2023-06-01T03:36:05;17.00;83.50
14397;DHT22;50653;47.810;13.022;2023-06-01T03:38:32;16.90;83.40
14397;DHT22;50653;47.810;13.022;2023-06-01T03:40:59;16.80;83.70
14397;DHT22;50653;47.810;13.022;2023-06-01T03:43:25;16.80;83.60
14397;DHT22;50653;47.810;13.022;2023-06-01T03:45:51;16.40;84.40
14397;DHT22;50653;47.810;13.022;2023-06-01T03:48:17;16.60;84.80
14397;DHT22;50653;47.810;13.022;2023-06-01T03:50:42;16.60;84.40
14397;DHT22;50653;47.810;13.022;2023-06-01T03:53:08;16.50;85.40
14397;DHT22;50653;47.810;13.022;2023-06-01T03:55:34;16.50;85.80
14397;DHT22;50653;47.810;13.022;2023-06-01T03:58:19;16.80;84.70
14397;DHT22;50653;47.810;13.022;2023-06-01T04:00:45;16.40;85.00
14397;DHT22;50653;47.810;13.022;2023-06-01T04:03:12;16.50;86.20
14397;DHT22;50653;47.810;13.022;2023-06-01T04:05:38;16.80;85.20
14397;DHT22;50653;47.810;13.022;2023-06-01T04:08:04;16.80;84.90
14397;DHT22;50653;47.810;13.022;2023-06-01T04:10:31;16.80;84.60
14397;DHT22;50653;47.810;13.022;2023-06-01T04:12:56;16.80;84.80
14397;DHT22;50653;47.810;13.022;2023-06-01T04:15:25;16.80;84.30
14397;DHT22;50653;47.810;13.022;2023-06-01T04:17:52;16.90;84.20
14397;DHT22;50653;47.810;13.022;2023-06-01T04:20:18;17.00;83.70
14397;DHT22;50653;47.810;13.022;2023-06-01T04:22:45;17.00;83.10
14397;DHT22;50653;47.810;13.022;2023-06-01T04:25:13;17.00;83.50
14397;DHT22;50653;47.810;13.022;2023-06-01T04:27:44;17.00;83.60
14397;DHT22;50653;47.810;13.022;2023-06-01T04:30:12;17.00;83.70
14397;DHT22;50653;47.810;13.022;2023-06-01T04:32:38;16.90;84.20
14397;DHT22;50653;47.810;13.022;2023-06-01T04:35:05;16.60;84.50
14397;DHT22;50653;47.810;13.022;2023-06-01T04:37:36;16.70;84.90
14397;DHT22;50653;47.810;13.022;2023-06-01T04:40:05;16.80;84.60
14397;DHT22;50653;47.810;13.022;2023-06-01T04:42:39;17.00;84.40
14397;DHT22;50653;47.810;13.022;2023-06-01T04:45:08;17.00;84.10
14397;DHT22;50653;47.810;13.022;2023-06-01T04:47:36;16.90;84.30
14397;DHT22;50653;47.810;13.022;2023-06-01T04:50:09;16.90;84.10
14397;DHT22;50653;47.810;13.022;2023-06-01T04:52:36;17.00;84.00
14397;DHT22;50653;47.810;13.022;2023-06-01T04:55:02;17.10;83.90
14397;DHT22;50653;47.810;13.022;2023-06-01T04:57:30;17.00;84.20
14397;DHT22;50653;47.810;13.022;2023-06-01T04:59:58;17.10;84.20
14397;DHT22;50653;47.810;13.022;2023-06-01T05:02:25;17.20;83.80
14397;DHT22;50653;47.810;13.022;2023-06-01T05:04:52;17.20;83.60
14397;DHT22;50653;47.810;13.022;2023-06-01T05:07:18;17.10;83.90
14397;DHT22;50653;47.810;13.022;2023-06-01T05:09:43;17.20;83.70
14397;DHT22;50653;47.810;13.022;2023-06-01T05:12:09;17.30;83.70
14397;DHT22;50653;47.810;13.022;2023-06-01T05:14:35;17.30;83.70
14397;DHT22;50653;47.810;13.022;2023-06-01T05:17:01;17.30;83.80
14397;DHT22;50653;47.810;13.022;2023-06-01T05:19:29;17.20;83.40
14397;DHT22;50653;47.810;13.022;2023-06-01T05:21:55;17.30;83.40
14397;DHT22;50653;47.810;13.022;2023-06-01T05:24:20;17.30;82.90
14397;DHT22;50653;47.810;13.022;2023-06-01T05:26:46;17.30;82.70
14397;DHT22;50653;47.810;13.022;2023-06-01T05:29:12;17.30;82.30
14397;DHT22;50653;47.810;13.022;2023-06-01T05:31:37;17.40;82.20
14397;DHT22;50653;47.810;13.022;2023-06-01T05:34:03;17.50;82.00
14397;DHT22;50653;47.810;13.022;2023-06-01T05:36:30;17.40;80.40
14397;DHT22;50653;47.810;13.022;2023-06-01T05:38:58;17.50;79.80
14397;DHT22;50653;47.810;13.022;2023-06-01T05:41:24;17.40;80.00
14397;DHT22;50653;47.810;13.022;2023-06-01T05:43:52;17.50;80.00
14397;DHT22;50653;47.810;13.022;2023-06-01T05:46:19;17.50;79.90
14397;DHT22;50653;47.810;13.022;2023-06-01T05:48:44;17.60;79.80
14397;DHT22;50653;47.810;13.022;2023-06-01T05:51:12;17.60;79.70
14397;DHT22;50653;47.810;13.022;2023-06-01T05:53:38;17.60;79.70
14397;DHT22;50653;47.810;13.022;2023-06-01T05:56:05;17.60;80.00
14397;DHT22;50653;47.810;13.022;2023-06-01T05:58:31;17.60;79.50
14397;DHT22;50653;47.810;13.022;2023-06-01T06:00:57;17.70;78.60
14397;DHT22;50653;47.810;13.022;2023-06-01T06:03:23;17.60;78.50
14397;DHT22;50653;47.810;13.022;2023-06-01T06:05:49;17.60;78.20
14397;DHT22;50653;47.810;13.022;2023-06-01T06:08:15;17.60;77.90
14397;DHT22;50653;47.810;13.022;2023-06-01T06:10:40;17.70;77.90
14397;DHT22;50653;47.810;13.022;2023-06-01T06:13:07;17.70;77.60
14397;DHT22;50653;47.810;13.022;2023-06-01T06:15:32;17.70;77.90
14397;DHT22;50653;47.810;13.022;2023-06-01T06:17:58;17.80;78.20
14397;DHT22;50653;47.810;13.022;2023-06-01T06:20:24;17.80;78.20
14397;DHT22;50653;47.810;13.022;2023-06-01T06:22:52;17.80;78.40
14397;DHT22;50653;47.810;13.022;2023-06-01T06:25:19;17.80;78.80
14397;DHT22;50653;47.810;13.022;2023-06-01T06:27:46;17.90;78.10
14397;DHT22;50653;47.810;13.022;2023-06-01T06:30:12;17.90;77.50
14397;DHT22;50653;47.810;13.022;2023-06-01T06:32:38;17.90;77.80
14397;DHT22;50653;47.810;13.022;2023-06-01T06:35:04;17.90;77.30
14397;DHT22;50653;47.810;13.022;2023-06-01T06:37:30;17.90;77.10
14397;DHT22;50653;47.810;13.022;2023-06-01T06:39:56;18.00;75.50
14397;DHT22;50653;47.810;13.022;2023-06-01T06:42:23;18.10;74.40
14397;DHT22;50653;47.810;13.022;2023-06-01T06:44:49;18.00;73.30
14397;DHT22;50653;47.810;13.022;2023-06-01T06:47:15;18.10;73.90
14397;DHT22;50653;47.810;13.022;2023-06-01T06:49:44;18.10;73.80
14397;DHT22;50653;47.810;13.022;2023-06-01T06:52:10;18.10;73.60
14397;DHT22;50653;47.810;13.022;2023-06-01T06:54:39;18.20;74.20
14397;DHT22;50653;47.810;13.022;2023-06-01T06:57:06;18.20;74.70
14397;DHT22;50653;47.810;13.022;2023-06-01T06:59:32;18.30;74.40
14397;DHT22;50653;47.810;13.022;2023-06-01T07:01:58;18.30;74.30
14397;DHT22;50653;47.810;13.022;2023-06-01T07:04:24;18.30;74.10
14397;DHT22;50653;47.810;13.022;2023-06-01T07:06:49;18.30;73.90
14397;DHT22;50653;47.810;13.022;2023-06-01T07:09:17;18.40;74.90
14397;DHT22;50653;47.810;13.022;2023-06-01T07:11:42;18.40;74.50
14397;DHT22;50653;47.810;13.022;2023-06-01T07:14:08;18.20;73.10
14397;DHT22;50653;47.810;13.022;2023-06-01T07:16:34;18.30;73.40
14397;DHT22;50653;47.810;13.022;2023-06-01T07:18:59;18.40;74.00
14397;DHT22;50653;47.810;13.022;2023-06-01T07:21:25;18.40;74.30
14397;DHT22;50653;47.810;13.022;2023-06-01T07:23:51;18.50;74.60
14397;DHT22;50653;47.810;13.022;2023-06-01T07:26:17;18.60;73.90
14397;DHT22;50653;47.810;13.022;2023-06-01T07:28:43;18.60;74.10
14397;DHT22;50653;47.810;13.022;2023-06-01T07:31:09;18.60;73.70
14397;DHT22;50653;47.810;13.022;2023-06-01T07:33:34;18.70;74.10
14397;DHT22;50653;47.810;13.022;2023-06-01T07:36:02;18.70;72.50
14397;DHT22;50653;47.810;13.022;2023-06-01T07:38:27;18.80;71.30
14397;DHT22;50653;47.810;13.022;2023-06-01T07:40:53;18.80;72.20
14397;DHT22;50653;47.810;13.022;2023-06-01T07:43:19;18.80;72.60
14397;DHT22;50653;47.810;13.022;2023-06-01T07:45:44;18.80;73.20
14397;DHT22;50653;47.810;13.022;2023-06-01T07:48:10;18.90;74.40
14397;DHT22;50653;47.810;13.022;2023-06-01T07:50:36;19.00;75.60
14397;DHT22;50653;47.810;13.022;2023-06-01T07:53:02;19.00;73.90
14397;DHT22;50653;47.810;13.022;2023-06-01T07:55:28;19.00;74.80
14397;DHT22;50653;47.810;13.022;2023-06-01T07:57:54;19.10;74.90
14397;DHT22;50653;47.810;13.022;2023-06-01T08:00:19;19.10;74.10
14397;DHT22;50653;47.810;13.022;2023-06-01T08:02:45;19.20;73.90
14397;DHT22;50653;47.810;13.022;2023-06-01T08:05:11;19.30;76.10
14397;DHT22;50653;47.810;13.022;2023-06-01T08:07:38;19.40;77.50
14397;DHT22;50653;47.810;13.022;2023-06-01T08:10:07;19.30;76.90
14397;DHT22;50653;47.810;13.022;2023-06-01T08:12:34;19.40;76.90
14397;DHT22;50653;47.810;13.022;2023-06-01T08:15:02;19.50;77.20
14397;DHT22;50653;47.810;13.022;2023-06-01T08:17:29;19.50;75.60
14397;DHT22;50653;47.810;13.022;2023-06-01T08:19:55;19.50;75.70
14397;DHT22;50653;47.810;13.022;2023-06-01T08:22:23;19.60;74.40
14397;DHT22;50653;47.810;13.022;2023-06-01T08:24:50;19.70;75.50
14397;DHT22;50653;47.810;13.022;2023-06-01T08:27:18;19.70;74.60
14397;DHT22;50653;47.810;13.022;2023-06-01T08:29:46;19.70;74.10
14397;DHT22;50653;47.810;13.022;2023-06-01T08:32:12;19.70;73.30
14397;DHT22;50653;47.810;13.022;2023-06-01T08:34:38;19.80;72.80
14397;DHT22;50653;47.810;13.022;2023-06-01T08:37:04;19.80;72.90
14397;DHT22;50653;47.810;13.022;2023-06-01T08:39:30;19.90;71.00
14397;DHT22;50653;47.810;13.022;2023-06-01T08:44:37;19.90;73.10
14397;DHT22;50653;47.810;13.022;2023-06-01T08:47:04;19.90;73.00
14397;DHT22;50653;47.810;13.022;2023-06-01T08:49:33;20.00;71.80
14397;DHT22;50653;47.810;13.022;2023-06-01T08:52:08;20.10;72.40
14397;DHT22;50653;47.810;13.022;2023-06-01T08:54:35;20.10;71.20
14397;DHT22;50653;47.810;13.022;2023-06-01T08:57:04;20.10;71.80
14397;DHT22;50653;47.810;13.022;2023-06-01T08:59:32;20.20;72.30
14397;DHT22;50653;47.810;13.022;2023-06-01T09:01:59;20.20;72.80
14397;DHT22;50653;47.810;13.022;2023-06-01T09:04:28;20.30;73.20
14397;DHT22;50653;47.810;13.022;2023-06-01T09:06:57;20.30;72.70
14397;DHT22;50653;47.810;13.022;2023-06-01T09:09:23;20.20;72.70
14397;DHT22;50653;47.810;13.022;2023-06-01T09:12:19;20.30;73.10
14397;DHT22;50653;47.810;13.022;2023-06-01T09:14:44;20.40;73.10
14397;DHT22;50653;47.810;13.022;2023-06-01T09:17:17;20.40;72.40
14397;DHT22;50653;47.810;13.022;2023-06-01T09:19:46;20.50;73.00
14397;DHT22;50653;47.810;13.022;2023-06-01T09:22:12;20.70;71.80
14397;DHT22;50653;47.810;13.022;2023-06-01T09:24:38;20.70;72.40
14397;DHT22;50653;47.810;13.022;2023-06-01T09:27:07;20.80;71.30
14397;DHT22;50653;47.810;13.022;2023-06-01T09:29:32;20.70;72.20
14397;DHT22;50653;47.810;13.022;2023-06-01T09:32:00;20.80;71.80
14397;DHT22;50653;47.810;13.022;2023-06-01T09:34:26;20.80;72.60
14397;DHT22;50653;47.810;13.022;2023-06-01T09:36:54;20.90;72.10
14397;DHT22;50653;47.810;13.022;2023-06-01T09:39:22;20.90;72.30
14397;DHT22;50653;47.810;13.022;2023-06-01T09:42:00;20.70;72.60
14397;DHT22;50653;47.810;13.022;2023-06-01T09:44:29;20.90;73.20
14397;DHT22;50653;47.810;13.022;2023-06-01T09:46:56;21.00;73.20
14397;DHT22;50653;47.810;13.022;2023-06-01T09:49:24;21.00;73.60
14397;DHT22;50653;47.810;13.022;2023-06-01T09:52:09;20.80;73.20
14397;DHT22;50653;47.810;13.022;2023-06-01T09:54:41;21.00;73.50
14397;DHT22;50653;47.810;13.022;2023-06-01T09:57:08;21.00;73.80
14397;DHT22;50653;47.810;13.022;2023-06-01T09:59:44;21.00;73.70
14397;DHT22;50653;47.810;13.022;2023-06-01T10:02:18;21.00;73.20
14397;DHT22;50653;47.810;13.022;2023-06-01T10:04:51;21.20;73.00
14397;DHT22;50653;47.810;13.022;2023-06-01T10:07:24;21.00;72.60
14397;DHT22;50653;47.810;13.022;2023-06-01T10:09:54;21.00;73.30
14397;DHT22;50653;47.810;13.022;2023-06-01T10:12:21;21.20;72.70
14397;DHT22;50653;47.810;13.022;2023-06-01T10:14:48;21.50;72.70
14397;DHT22;50653;47.810;13.022;2023-06-01T10:17:15;21.50;70.50
14397;DHT22;50653;47.810;13.022;2023-06-01T10:19:42;21.60;69.90
14397;DHT22;50653;47.810;13.022;2023-06-01T10:22:08;21.60;69.60
14397;DHT22;50653;47.810;13.022;2023-06-01T10:24:36;21.70;69.90
14397;DHT22;50653;47.810;13.022;2023-06-01T10:27:17;21.70;69.20
14397;DHT22;50653;47.810;13.022;2023-06-01T10:29:46;21.50;68.70
14397;DHT22;50653;47.810;13.022;2023-06-01T10:35:06;21.80;69.30
14397;DHT22;50653;47.810;13.022;2023-06-01T10:37:33;21.80;68.80
14397;DHT22;50653;47.810;13.022;2023-06-01T10:42:44;22.10;67.50
14397;DHT22;50653;47.810;13.022;2023-06-01T10:47:57;21.90;68.50
14397;DHT22;50653;47.810;13.022;2023-06-01T10:50:23;21.70;68.20
14397;DHT22;50653;47.810;13.022;2023-06-01T10:52:48;22.00;66.00
14397;DHT22;50653;47.810;13.022;2023-06-01T10:57:41;22.10;67.60
14397;DHT22;50653;47.810;13.022;2023-06-01T11:10:56;21.90;66.60
14397;DHT22;50653;47.810;13.022;2023-06-01T11:13:23;22.30;66.70
14397;DHT22;50653;47.810;13.022;2023-06-01T11:21:19;22.70;64.80
14397;DHT22;50653;47.810;13.022;2023-06-01T11:23:50;22.40;66.20
14397;DHT22;50653;47.810;13.022;2023-06-01T11:26:18;22.70;65.30
14397;DHT22;50653;47.810;13.022;2023-06-01T11:28:46;22.90;63.50
14397;DHT22;50653;47.810;13.022;2023-06-01T11:31:15;22.70;63.10
14397;DHT22;50653;47.810;13.022;2023-06-01T11:33:52;22.90;65.40
14397;DHT22;50653;47.810;13.022;2023-06-01T11:36:23;23.00;63.30
14397;DHT22;50653;47.810;13.022;2023-06-01T11:38:51;22.90;62.40
14397;DHT22;50653;47.810;13.022;2023-06-01T11:41:18;22.80;61.10
14397;DHT22;50653;47.810;13.022;2023-06-01T11:43:44;22.80;62.00
14397;DHT22;50653;47.810;13.022;2023-06-01T11:46:10;22.80;61.70
14397;DHT22;50653;47.810;13.022;2023-06-01T11:48:36;22.70;61.20
14397;DHT22;50653;47.810;13.022;2023-06-01T11:51:02;23.00;58.80
14397;DHT22;50653;47.810;13.022;2023-06-01T11:53:30;22.90;60.10
14397;DHT22;50653;47.810;13.022;2023-06-01T11:55:59;22.70;61.90
14397;DHT22;50653;47.810;13.022;2023-06-01T11:58:29;22.50;63.30
14397;DHT22;50653;47.810;13.022;2023-06-01T12:00:56;22.80;62.80
14397;DHT22;50653;47.810;13.022;2023-06-01T12:03:23;23.10;61.70
14397;DHT22;50653;47.810;13.022;2023-06-01T12:05:52;23.20;62.00
14397;DHT22;50653;47.810;13.022;2023-06-01T12:08:20;23.50;61.20
14397;DHT22;50653;47.810;13.022;2023-06-01T12:10:47;23.30;60.40
14397;DHT22;50653;47.810;13.022;2023-06-01T12:13:14;23.20;58.90
14397;DHT22;50653;47.810;13.022;2023-06-01T12:15:40;23.30;57.10
14397;DHT22;50653;47.810;13.022;2023-06-01T12:18:06;23.10;58.90
14397;DHT22;50653;47.810;13.022;2023-06-01T12:20:38;23.10;58.80
14397;DHT22;50653;47.810;13.022;2023-06-01T12:28:18;23.30;59.20
14397;DHT22;50653;47.810;13.022;2023-06-01T12:30:44;23.60;59.60
14397;DHT22;50653;47.810;13.022;2023-06-01T12:33:34;23.30;60.20
14397;DHT22;50653;47.810;13.022;2023-06-01T12:36:03;23.30;60.60
14397;DHT22;50653;47.810;13.022;2023-06-01T12:38:49;23.50;60.30
14397;DHT22;50653;47.810;13.022;2023-06-01T12:41:16;24.00;60.00
14397;DHT22;50653;47.810;13.022;2023-06-01T12:43:49;23.90;60.00
14397;DHT22;50653;47.810;13.022;2023-06-01T12:46:19;23.60;61.30
14397;DHT22;50653;47.810;13.022;2023-06-01T12:48:45;23.90;59.50
14397;DHT22;50653;47.810;13.022;2023-06-01T12:51:12;23.80;58.90
14397;DHT22;50653;47.810;13.022;2023-06-01T12:53:38;23.90;59.10
14397;DHT22;50653;47.810;13.022;2023-06-01T12:56:05;23.90;59.30
14397;DHT22;50653;47.810;13.022;2023-06-01T12:58:32;24.10;59.20
14397;DHT22;50653;47.810;13.022;2023-06-01T13:00:57;24.40;58.30
14397;DHT22;50653;47.810;13.022;2023-06-01T13:03:23;24.20;58.30
14397;DHT22;50653;47.810;13.022;2023-06-01T13:05:49;24.20;58.30
14397;DHT22;50653;47.810;13.022;2023-06-01T13:08:16;24.10;57.90
14397;DHT22;50653;47.810;13.022;2023-06-01T13:10:43;24.20;57.50
14397;DHT22;50653;47.810;13.022;2023-06-01T13:13:09;24.30;58.20
14397;DHT22;50653;47.810;13.022;2023-06-01T13:15:35;24.20;58.80
14397;DHT22;50653;47.810;13.022;2023-06-01T13:18:01;24.10;59.10
14397;DHT22;50653;47.810;13.022;2023-06-01T13:20:27;24.40;57.50
14397;DHT22;50653;47.810;13.022;2023-06-01T13:22:53;24.70;56.70
14397;DHT22;50653;47.810;13.022;2023-06-01T13:25:19;24.70;56.80
14397;DHT22;50653;47.810;13.022;2023-06-01T13:27:45;24.80;57.30
14397;DHT22;50653;47.810;13.022;2023-06-01T13:30:11;24.60;57.50
14397;DHT22;50653;47.810;13.022;2023-06-01T13:32:37;24.70;57.20
14397;DHT22;50653;47.810;13.022;2023-06-01T13:35:03;24.80;56.50
14397;DHT22;50653;47.810;13.022;2023-06-01T13:37:29;24.70;57.00
14397;DHT22;50653;47.810;13.022;2023-06-01T13:39:55;24.70;56.90
14397;DHT22;50653;47.810;13.022;2023-06-01T13:42:20;24.80;56.90
14397;DHT22;50653;47.810;13.022;2023-06-01T13:44:46;24.90;57.00
14397;DHT22;50653;47.810;13.022;2023-06-01T13:47:16;24.90;55.70
14397;DHT22;50653;47.810;13.022;2023-06-01T13:49:42;25.20;55.50
14397;DHT22;50653;47.810;13.022;2023-06-01T13:52:09;25.30;55.10
14397;DHT22;50653;47.810;13.022;2023-06-01T13:54:35;25.00;56.10
14397;DHT22;50653;47.810;13.022;2023-06-01T13:57:01;24.90;57.00
14397;DHT22;50653;47.810;13.022;2023-06-01T13:59:28;25.20;56.70
14397;DHT22;50653;47.810;13.022;2023-06-01T14:01:59;25.40;55.20
14397;DHT22;50653;47.810;13.022;2023-06-01T14:04:25;25.40;55.00
14397;DHT22;50653;47.810;13.022;2023-06-01T14:06:50;25.20;54.00
14397;DHT22;50653;47.810;13.022;2023-06-01T14:09:17;25.30;54.20
14397;DHT22;50653;47.810;13.022;2023-06-01T14:11:42;25.20;55.50
14397;DHT22;50653;47.810;13.022;2023-06-01T14:14:08;25.40;55.10
14397;DHT22;50653;47.810;13.022;2023-06-01T14:16:34;25.50;55.30
14397;DHT22;50653;47.810;13.022;2023-06-01T14:19:00;25.40;56.30
14397;DHT22;50653;47.810;13.022;2023-06-01T14:21:25;25.30;55.70
14397;DHT22;50653;47.810;13.022;2023-06-01T14:23:51;25.40;55.10
14397;DHT22;50653;47.810;13.022;2023-06-01T14:26:17;25.40;55.30
14397;DHT22;50653;47.810;13.022;2023-06-01T14:28:43;25.30;55.80
14397;DHT22;50653;47.810;13.022;2023-06-01T14:31:08;25.50;55.40
14397;DHT22;50653;47.810;13.022;2023-06-01T14:33:34;25.60;55.80
14397;DHT22;50653;47.810;13.022;2023-06-01T14:36:00;25.70;55.60
14397;DHT22;50653;47.810;13.022;2023-06-01T14:38:25;25.80;55.40
14397;DHT22;50653;47.810;13.022;2023-06-01T14:40:51;25.90;54.70
14397;DHT22;50653;47.810;13.022;2023-06-01T14:43:17;25.70;55.10
14397;DHT22;50653;47.810;13.022;2023-06-01T14:45:43;25.50;55.60
14397;DHT22;50653;47.810;13.022;2023-06-01T14:48:09;25.70;54.50
14397;DHT22;50653;47.810;13.022;2023-06-01T14:50:35;25.90;54.80
14397;DHT22;50653;47.810;13.022;2023-06-01T14:53:00;26.00;54.60
14397;DHT22;50653;47.810;13.022;2023-06-01T14:55:26;25.90;53.90
14397;DHT22;50653;47.810;13.022;2023-06-01T14:57:53;25.90;53.90
14397;DHT22;50653;47.810;13.022;2023-06-01T15:00:19;25.70;54.80
14397;DHT22;50653;47.810;13.022;2023-06-01T15:02:45;25.80;54.00
14397;DHT22;50653;47.810;13.022;2023-06-01T15:05:11;26.00;53.30
14397;DHT22;50653;47.810;13.022;2023-06-01T15:07:37;26.10;52.90
14397;DHT22;50653;47.810;13.022;2023-06-01T15:10:03;26.10;53.40
14397;DHT22;50653;47.810;13.022;2023-06-01T15:12:29;26.30;53.20
14397;DHT22;50653;47.810;13.022;2023-06-01T15:14:55;26.50;53.00
14397;DHT22;50653;47.810;13.022;2023-06-01T15:17:20;26.70;52.80
14397;DHT22;50653;47.810;13.022;2023-06-01T15:19:46;26.80;52.60
14397;DHT22;50653;47.810;13.022;2023-06-01T15:22:13;26.90;52.40
14397;DHT22;50653;47.810;13.022;2023-06-01T15:24:38;27.10;51.70
14397;DHT22;50653;47.810;13.022;2023-06-01T15:27:06;27.50;51.30
14397;DHT22;50653;47.810;13.022;2023-06-01T15:29:32;27.50;51.00
14397;DHT22;50653;47.810;13.022;2023-06-01T15:31:58;27.60;51.20
14397;DHT22;50653;47.810;13.022;2023-06-01T15:34:24;27.10;51.30
14397;DHT22;50653;47.810;13.022;2023-06-01T15:36:49;27.10;51.80
14397;DHT22;50653;47.810;13.022;2023-06-01T15:39:15;27.00;51.60
14397;DHT22;50653;47.810;13.022;2023-06-01T15:41:41;26.80;52.00
14397;DHT22;50653;47.810;13.022;2023-06-01T15:44:07;26.70;51.90
14397;DHT22;50653;47.810;13.022;2023-06-01T15:46:33;26.60;51.80
14397;DHT22;50653;47.810;13.022;2023-06-01T15:48:58;26.60;51.80
14397;DHT22;50653;47.810;13.022;2023-06-01T15:51:24;26.50;52.00
14397;DHT22;50653;47.810;13.022;2023-06-01T15:53:50;26.40;51.50
14397;DHT22;50653;47.810;13.022;2023-06-01T15:56:16;26.40;51.60
14397;DHT22;50653;47.810;13.022;2023-06-01T15:58:42;26.40;52.20
14397;DHT22;50653;47.810;13.022;2023-06-01T16:01:08;26.50;52.00
14397;DHT22;50653;47.810;13.022;2023-06-01T16:03:34;26.50;51.50
14397;DHT22;50653;47.810;13.022;2023-06-01T16:06:00;26.40;51.50
14397;DHT22;50653;47.810;13.022;2023-06-01T16:08:26;26.40;51.30